createdAt,value
2023-08-20T00:02:05.773Z,27.40
2023-08-20T00:04:40.696Z,20.55
2023-08-20T00:07:11.512Z,20.50
2023-08-20T00:09:44.225Z,22.23
2023-08-20T00:12:14.037Z,21.27
2023-08-20T00:14:58.012Z,19.42
2023-08-20T00:17:28.852Z,17.63
2023-08-20T00:20:02.610Z,18.13
2023-08-20T00:22:34.929Z,21.10
2023-08-20T00:25:05.634Z,17.73
2023-08-20T00:27:35.808Z,20.55
2023-08-20T00:30:06.953Z,21.92
2023-08-20T00:32:36.966Z,26.55
2023-08-20T00:35:10.711Z,24.13
2023-08-20T00:37:40.702Z,24.15
2023-08-20T00:40:11.624Z,23.13
2023-08-20T00:42:41.625Z,23.02
2023-08-20T00:45:12.426Z,22.63
2023-08-20T00:47:42.612Z,27.45
2023-08-20T00:50:15.709Z,27.38
2023-08-20T00:52:45.759Z,24.95
2023-08-20T00:55:16.610Z,25.60
2023-08-20T00:57:46.764Z,25.23
2023-08-20T01:00:17.816Z,27.20
2023-08-20T01:02:48.582Z,25.58
2023-08-20T01:05:23.616Z,25.23
2023-08-20T01:08:30.470Z,28.07
2023-08-20T01:11:05.484Z,27.60
2023-08-20T01:13:35.408Z,29.75
2023-08-20T01:16:06.266Z,28.80
2023-08-20T01:18:36.240Z,31.83
2023-08-20T01:21:27.830Z,33.05
2023-08-20T01:24:19.390Z,33.28
2023-08-20T01:27:11.897Z,32.17
2023-08-20T01:29:44.544Z,30.98
2023-08-20T01:32:15.933Z,35.53
2023-08-20T01:34:46.963Z,34.55
2023-08-20T01:37:16.733Z,32.33
2023-08-20T01:39:46.457Z,31.15
2023-08-20T01:42:16.558Z,30.67
2023-08-20T01:44:48.913Z,31.98
2023-08-20T01:47:18.674Z,31.75
2023-08-20T01:49:48.374Z,30.48
2023-08-20T01:52:18.077Z,32.85
2023-08-20T01:54:47.951Z,31.60
2023-08-20T01:57:17.801Z,33.47
2023-08-20T01:59:51.499Z,34.13
2023-08-20T02:02:22.708Z,34.35
2023-08-20T02:04:52.736Z,29.83
2023-08-20T02:07:22.489Z,32.90
2023-08-20T02:09:52.371Z,31.15
2023-08-20T02:12:23.130Z,26.73
2023-08-20T02:14:55.598Z,28.95
2023-08-20T02:17:25.390Z,30.88
2023-08-20T02:19:55.226Z,28.95
2023-08-20T02:22:25.503Z,31.45
2023-08-20T02:24:55.309Z,26.52
2023-08-20T02:27:25.120Z,29.52
2023-08-20T02:29:57.507Z,27.88
2023-08-20T02:32:27.320Z,28.48
2023-08-20T02:34:57.710Z,32.80
2023-08-20T02:37:27.446Z,32.33
2023-08-20T02:39:57.328Z,30.00
2023-08-20T02:42:27.061Z,30.08
2023-08-20T02:44:59.450Z,31.42
2023-08-20T02:47:29.696Z,29.67
2023-08-20T02:49:59.556Z,30.50
2023-08-20T02:52:29.602Z,27.33
2023-08-20T02:55:01.460Z,27.40
2023-08-20T02:57:31.335Z,25.48
2023-08-20T03:00:04.325Z,25.73
2023-08-20T03:02:35.346Z,26.17
2023-08-20T03:05:07.221Z,28.73
2023-08-20T03:07:37.169Z,28.42
2023-08-20T03:10:07.679Z,28.67
2023-08-20T03:12:37.516Z,25.67
2023-08-20T03:15:13.518Z,26.77
2023-08-20T03:17:44.348Z,23.33
2023-08-20T03:20:15.254Z,24.40
2023-08-20T03:22:45.972Z,25.83
2023-08-20T03:25:15.773Z,24.27
2023-08-20T03:27:46.041Z,22.60
2023-08-20T03:30:18.712Z,24.70
2023-08-20T03:32:48.724Z,25.23
2023-08-20T03:35:19.872Z,28.58
2023-08-20T03:37:49.591Z,28.52
2023-08-20T03:40:19.733Z,24.27
2023-08-20T03:42:49.528Z,27.92
2023-08-20T03:45:21.980Z,28.00
2023-08-20T03:47:51.887Z,31.83
2023-08-20T03:50:24.325Z,28.83
2023-08-20T03:52:57.791Z,29.45
2023-08-20T03:55:28.232Z,30.10
2023-08-20T03:57:58.017Z,32.00
2023-08-20T04:00:32.528Z,33.03
2023-08-20T04:03:07.343Z,32.33
2023-08-20T04:05:40.602Z,29.40
2023-08-20T04:08:10.942Z,27.10
2023-08-20T04:10:48.638Z,32.00
2023-08-20T04:13:18.726Z,25.70
2023-08-20T04:15:51.051Z,24.75
2023-08-20T04:18:23.397Z,23.50
2023-08-20T04:20:54.505Z,23.60
2023-08-20T04:23:24.514Z,21.48
2023-08-20T04:25:54.499Z,19.95
2023-08-20T04:28:24.246Z,20.60
2023-08-20T04:30:59.346Z,19.50
2023-08-20T04:33:29.178Z,18.92
2023-08-20T04:35:58.867Z,20.45
2023-08-20T04:38:28.747Z,18.60
2023-08-20T04:40:58.460Z,18.30
2023-08-20T04:43:28.152Z,18.92
2023-08-20T04:46:00.459Z,17.63
2023-08-20T04:48:31.422Z,19.08
2023-08-20T04:51:02.116Z,16.50
2023-08-20T04:53:31.868Z,16.70
2023-08-20T04:56:02.377Z,18.08
2023-08-20T04:58:32.138Z,18.33
2023-08-20T05:01:05.169Z,18.27
2023-08-20T05:03:35.199Z,17.70
2023-08-20T05:06:08.379Z,17.20
2023-08-20T05:08:38.065Z,20.33
2023-08-20T05:11:07.775Z,17.00
2023-08-20T05:13:37.642Z,18.25
2023-08-20T05:16:10.034Z,18.23
2023-08-20T05:18:39.690Z,17.52
2023-08-20T05:21:12.892Z,18.98
2023-08-20T05:23:42.765Z,18.88
2023-08-20T05:26:12.529Z,19.60
2023-08-20T05:28:42.266Z,17.40
2023-08-20T05:31:14.834Z,16.13
2023-08-20T05:33:44.625Z,15.95
2023-08-20T05:36:16.654Z,15.63
2023-08-20T05:38:46.551Z,17.17
2023-08-20T05:41:16.282Z,14.93
2023-08-20T05:43:46.128Z,15.45
2023-08-20T05:46:18.457Z,16.90
2023-08-20T05:48:48.173Z,16.65
2023-08-20T05:51:18.181Z,17.73
2023-08-20T05:53:50.769Z,14.80
2023-08-20T05:56:20.511Z,15.30
2023-08-20T05:58:50.205Z,14.93
2023-08-20T06:01:22.497Z,19.13
2023-08-20T06:03:52.214Z,16.23
2023-08-20T06:06:22.102Z,16.70
2023-08-20T06:09:06.603Z,14.38
2023-08-20T06:11:37.921Z,15.80
2023-08-20T06:14:07.716Z,15.88
2023-08-20T06:16:40.178Z,14.43
2023-08-20T06:19:09.892Z,15.50
2023-08-20T06:21:39.599Z,14.35
2023-08-20T06:24:10.230Z,15.02
2023-08-20T06:26:39.922Z,13.65
2023-08-20T06:29:09.801Z,14.57
2023-08-20T06:31:42.266Z,12.63
2023-08-20T06:34:12.060Z,13.02
2023-08-20T06:36:41.855Z,13.68
2023-08-20T06:39:11.637Z,13.27
2023-08-20T06:41:41.568Z,12.73
2023-08-20T06:44:11.304Z,12.57
2023-08-20T06:46:44.502Z,13.40
2023-08-20T06:49:14.310Z,12.10
2023-08-20T06:51:44.000Z,12.13
2023-08-20T06:54:13.746Z,11.20
2023-08-20T06:56:43.505Z,12.48
2023-08-20T06:59:13.554Z,13.63
2023-08-20T07:01:46.102Z,11.60
2023-08-20T07:04:16.488Z,12.27
2023-08-20T07:06:46.387Z,12.27
2023-08-20T07:09:17.450Z,10.23
2023-08-20T07:11:48.713Z,11.30
2023-08-20T07:14:19.445Z,12.00
2023-08-20T07:16:51.712Z,11.75
2023-08-20T07:19:21.709Z,11.27
2023-08-20T07:21:51.361Z,14.15
2023-08-20T07:24:26.668Z,13.65
2023-08-20T07:27:01.810Z,10.70
2023-08-20T07:29:31.745Z,10.35
2023-08-20T07:32:04.675Z,11.63
2023-08-20T07:34:35.242Z,11.70
2023-08-20T07:37:06.375Z,11.45
2023-08-20T07:39:36.115Z,12.25
2023-08-20T07:42:05.905Z,10.80
2023-08-20T07:44:35.663Z,11.85
2023-08-20T07:47:08.266Z,11.90
2023-08-20T07:49:38.099Z,12.35
2023-08-20T07:52:08.120Z,12.93
2023-08-20T07:54:40.697Z,13.05
2023-08-20T07:57:10.445Z,12.95
2023-08-20T07:59:40.326Z,10.23
2023-08-20T08:02:13.046Z,12.18
2023-08-20T08:04:44.175Z,9.52
2023-08-20T08:07:15.600Z,11.90
2023-08-20T08:09:48.351Z,10.13
2023-08-20T08:12:18.106Z,10.23
2023-08-20T08:14:47.802Z,9.07
2023-08-20T08:17:20.169Z,9.57
2023-08-20T08:19:51.085Z,10.10
2023-08-20T08:22:22.028Z,8.98
2023-08-20T08:24:51.735Z,11.85
2023-08-20T08:27:21.418Z,10.52
2023-08-20T08:29:51.176Z,9.32
2023-08-20T08:32:23.459Z,9.57
2023-08-20T08:34:53.272Z,9.73
2023-08-20T08:37:22.950Z,9.52
2023-08-20T08:39:52.869Z,9.68
2023-08-20T08:42:26.302Z,8.75
2023-08-20T08:44:56.509Z,9.63
2023-08-20T08:47:30.401Z,9.15
2023-08-20T08:50:00.869Z,10.07
2023-08-20T08:52:31.089Z,13.27
2023-08-20T08:55:01.127Z,8.63
2023-08-20T08:57:30.905Z,12.15
2023-08-20T09:00:00.858Z,9.07
2023-08-20T09:02:33.290Z,8.18
2023-08-20T09:05:04.277Z,9.63
2023-08-20T09:07:36.848Z,8.35
2023-08-20T09:10:09.086Z,10.05
2023-08-20T09:12:39.919Z,9.38
2023-08-20T09:15:14.785Z,9.00
2023-08-20T09:20:19.519Z,10.07
2023-08-20T09:22:53.016Z,11.27
2023-08-20T09:25:22.923Z,12.48
2023-08-20T09:27:52.648Z,9.00
2023-08-20T09:30:23.267Z,11.73
2023-08-20T09:33:12.615Z,9.75
2023-08-20T09:35:43.661Z,11.82
2023-08-20T09:38:13.370Z,9.70
2023-08-20T09:40:43.344Z,11.35
2023-08-20T09:43:15.758Z,11.98
2023-08-20T09:45:47.543Z,9.13
2023-08-20T09:48:23.723Z,9.68
2023-08-20T09:50:55.980Z,9.00
2023-08-20T09:53:30.766Z,10.95
2023-08-20T09:58:35.906Z,9.73
2023-08-20T10:01:06.373Z,9.82
2023-08-20T10:03:39.018Z,9.90
2023-08-20T10:06:10.558Z,10.00
2023-08-20T10:08:41.121Z,11.48
2023-08-20T10:11:10.802Z,9.60
2023-08-20T10:13:41.154Z,10.38
2023-08-20T10:16:11.130Z,8.50
2023-08-20T10:18:44.076Z,10.23
2023-08-20T10:21:13.851Z,9.07
2023-08-20T10:23:45.572Z,8.95
2023-08-20T10:26:15.638Z,10.95
2023-08-20T10:28:45.777Z,11.82
2023-08-20T10:31:17.410Z,8.18
2023-08-20T10:33:59.030Z,8.95
2023-08-20T10:36:30.448Z,9.43
2023-08-20T10:39:00.464Z,8.18
2023-08-20T10:41:34.715Z,9.13
2023-08-20T10:44:04.526Z,9.20
2023-08-20T10:46:38.034Z,9.27
2023-08-20T10:49:10.602Z,10.40
2023-08-20T10:51:42.434Z,9.57
2023-08-20T10:54:13.693Z,10.07
2023-08-20T10:56:49.135Z,9.35
2023-08-20T10:59:20.284Z,12.23
2023-08-20T11:01:51.883Z,9.90
2023-08-20T11:04:29.119Z,10.15
2023-08-20T11:07:02.040Z,9.07
2023-08-20T11:09:33.893Z,10.45
2023-08-20T11:12:03.749Z,9.98
2023-08-20T11:14:33.514Z,10.48
2023-08-20T11:17:03.543Z,10.75
2023-08-20T11:19:36.121Z,10.40
2023-08-20T11:22:06.041Z,8.85
2023-08-20T11:24:37.663Z,10.23
2023-08-20T11:27:07.506Z,9.00
2023-08-20T11:29:37.908Z,9.20
2023-08-20T11:32:07.662Z,11.98
2023-08-20T11:34:40.351Z,9.73
2023-08-20T11:37:10.481Z,14.48
2023-08-20T11:39:40.976Z,10.57
2023-08-20T11:42:11.104Z,9.10
2023-08-20T11:44:47.565Z,10.52
2023-08-20T11:47:20.603Z,11.13
2023-08-20T11:50:06.513Z,9.00
2023-08-20T11:52:36.638Z,10.13
2023-08-20T11:55:07.509Z,9.48
2023-08-20T11:57:37.444Z,9.45
2023-08-20T12:00:10.254Z,11.05
2023-08-20T12:02:41.015Z,9.30
2023-08-20T12:05:15.580Z,10.50
2023-08-20T12:07:45.236Z,10.63
2023-08-20T12:10:25.539Z,12.95
2023-08-20T12:12:55.554Z,10.73
2023-08-20T12:15:28.012Z,10.52
2023-08-20T12:18:06.585Z,12.18
2023-08-20T12:20:39.844Z,12.45
2023-08-20T12:23:10.918Z,9.43
2023-08-20T12:25:40.764Z,11.90
2023-08-20T12:28:11.504Z,12.13
2023-08-20T12:30:41.968Z,10.52
2023-08-20T12:33:12.386Z,10.77
2023-08-20T12:35:44.691Z,12.57
2023-08-20T12:38:14.413Z,10.90
2023-08-20T12:40:44.181Z,11.88
2023-08-20T12:43:13.901Z,9.30
2023-08-20T12:45:43.662Z,10.98
2023-08-20T12:48:13.699Z,9.85
2023-08-20T12:50:46.374Z,10.30
2023-08-20T12:53:16.458Z,10.40
2023-08-20T12:55:48.131Z,9.93
2023-08-20T12:58:17.860Z,10.57
2023-08-20T13:00:47.661Z,10.20
2023-08-20T13:03:19.094Z,9.55
2023-08-20T13:05:52.484Z,12.20
2023-08-20T13:08:22.857Z,11.20
2023-08-20T13:10:57.040Z,9.40
2023-08-20T13:13:28.305Z,8.80
2023-08-20T13:15:58.691Z,10.20
2023-08-20T13:18:29.291Z,9.55
2023-08-20T13:21:01.739Z,8.77
2023-08-20T13:23:31.545Z,10.75
2023-08-20T13:26:03.668Z,10.63
2023-08-20T13:28:33.369Z,9.23
2023-08-20T13:31:03.066Z,9.02
2023-08-20T13:33:32.730Z,9.10
2023-08-20T13:36:05.436Z,8.13
2023-08-20T13:38:35.609Z,8.75
2023-08-20T13:41:05.381Z,9.05
2023-08-20T13:43:35.174Z,9.90
2023-08-20T13:46:05.584Z,11.25
2023-08-20T13:48:35.573Z,9.85
2023-08-20T13:51:12.160Z,9.52
2023-08-20T13:53:42.001Z,11.60
2023-08-20T13:56:11.815Z,7.80
2023-08-20T13:58:41.634Z,8.27
2023-08-20T14:01:12.708Z,8.68
2023-08-20T14:03:42.509Z,9.32
2023-08-20T14:06:14.793Z,8.75
2023-08-20T14:08:45.142Z,8.88
2023-08-20T14:11:14.826Z,9.05
2023-08-20T14:13:44.511Z,7.60
2023-08-20T14:16:14.609Z,8.98
2023-08-20T14:18:44.443Z,8.40
2023-08-20T14:21:16.843Z,8.13
2023-08-20T14:23:46.517Z,9.82
2023-08-20T14:26:16.953Z,7.80
2023-08-20T14:28:46.898Z,8.35
2023-08-20T14:31:17.007Z,9.13
2023-08-20T14:33:46.851Z,8.18
2023-08-20T14:36:19.116Z,8.65
2023-08-20T14:38:48.792Z,9.23
2023-08-20T14:41:18.632Z,10.13
2023-08-20T14:43:48.375Z,7.90
2023-08-20T14:46:19.324Z,8.77
2023-08-20T14:48:49.300Z,8.07
2023-08-20T14:51:21.657Z,9.95
2023-08-20T14:53:51.581Z,8.80
2023-08-20T14:56:25.036Z,8.27
2023-08-20T14:58:54.712Z,8.75
2023-08-20T15:01:24.583Z,8.43
2023-08-20T15:03:54.449Z,9.13
2023-08-20T15:06:28.249Z,7.95
2023-08-20T15:08:57.942Z,10.18
2023-08-20T15:11:29.302Z,11.13
2023-08-20T15:13:59.086Z,7.65
2023-08-20T15:16:28.906Z,9.50
2023-08-20T15:18:58.616Z,7.72
2023-08-20T15:21:30.952Z,11.70
2023-08-20T15:24:00.727Z,8.95
2023-08-20T15:26:32.141Z,9.30
2023-08-20T15:29:04.932Z,8.32
2023-08-20T15:31:34.671Z,8.85
2023-08-20T15:34:04.827Z,9.32
2023-08-20T15:36:37.065Z,10.30
2023-08-20T15:39:06.835Z,9.55
2023-08-20T15:41:36.566Z,7.28
2023-08-20T15:44:06.570Z,8.60
2023-08-20T15:46:36.582Z,9.00
2023-08-20T15:49:06.337Z,9.32
2023-08-20T15:51:39.387Z,8.50
2023-08-20T15:54:09.740Z,8.82
2023-08-20T15:56:42.993Z,9.38
2023-08-20T15:59:12.678Z,9.85
2023-08-20T16:01:42.920Z,8.65
2023-08-20T16:04:12.661Z,8.73
2023-08-20T16:06:44.982Z,9.38
2023-08-20T16:09:14.718Z,9.02
2023-08-20T16:11:44.473Z,16.75
2023-08-20T16:14:14.175Z,10.77
2023-08-20T16:16:44.276Z,9.88
2023-08-20T16:19:14.341Z,9.57
2023-08-20T16:21:46.662Z,10.40
2023-08-20T16:24:16.841Z,10.10
2023-08-20T16:26:46.528Z,9.68
2023-08-20T16:29:16.295Z,9.32
2023-08-20T16:31:46.032Z,8.82
2023-08-20T16:34:16.916Z,11.77
2023-08-20T16:36:49.282Z,9.95
2023-08-20T16:39:19.224Z,9.63
2023-08-20T16:41:48.892Z,11.55
2023-08-20T16:44:21.586Z,11.70
2023-08-20T16:46:51.614Z,12.88
2023-08-20T16:49:21.298Z,10.50
2023-08-20T16:51:53.582Z,11.63
2023-08-20T16:54:23.255Z,9.23
2023-08-20T16:56:52.991Z,9.00
2023-08-20T16:59:22.750Z,11.52
2023-08-20T17:01:53.545Z,10.52
2023-08-20T17:04:23.237Z,9.48
2023-08-20T17:06:55.538Z,9.23
2023-08-20T17:09:25.384Z,9.23
2023-08-20T17:11:55.472Z,8.88
2023-08-20T17:14:25.899Z,9.93
2023-08-20T17:16:56.349Z,10.48
2023-08-20T17:19:26.081Z,10.23
2023-08-20T17:21:58.432Z,13.48
2023-08-20T17:24:28.161Z,10.43
2023-08-20T17:27:00.084Z,14.38
2023-08-20T17:29:31.255Z,9.88
2023-08-20T17:32:00.995Z,11.20
2023-08-20T17:34:32.595Z,11.23
2023-08-20T17:37:05.063Z,12.20
2023-08-20T17:39:34.856Z,10.38
2023-08-20T17:42:04.601Z,11.25
2023-08-20T17:44:34.458Z,11.55
2023-08-20T17:47:04.215Z,14.38
2023-08-20T17:49:33.977Z,10.10
2023-08-20T17:52:06.669Z,11.48
2023-08-20T17:54:36.396Z,9.85
2023-08-20T17:57:06.334Z,10.13
2023-08-20T17:59:36.398Z,11.98
2023-08-20T18:02:06.156Z,10.57
2023-08-20T18:04:36.854Z,11.15
2023-08-20T18:07:09.086Z,10.50
2023-08-20T18:09:39.066Z,12.77
2023-08-20T18:12:12.028Z,14.93
2023-08-20T18:14:41.703Z,11.40
2023-08-20T18:17:11.475Z,11.60
2023-08-20T18:19:41.196Z,13.35
2023-08-20T18:22:13.407Z,14.38
2023-08-20T18:24:43.061Z,9.98
2023-08-20T18:27:13.090Z,13.80
2023-08-20T18:29:43.343Z,14.65
2023-08-20T18:32:13.009Z,11.70
2023-08-20T18:34:42.751Z,11.13
2023-08-20T18:37:15.017Z,12.65
2023-08-20T18:39:46.960Z,15.95
2023-08-20T18:42:16.621Z,19.48
2023-08-20T18:44:46.361Z,22.58
2023-08-20T18:47:16.123Z,23.00
2023-08-20T18:49:47.281Z,17.25
2023-08-20T18:52:19.682Z,19.30
2023-08-20T18:54:49.465Z,17.83
2023-08-20T18:57:19.121Z,19.73
2023-08-20T18:59:49.145Z,15.90
2023-08-20T19:02:18.937Z,19.73
2023-08-20T19:04:51.328Z,17.23
2023-08-20T19:07:23.794Z,17.23
2023-08-20T19:09:53.780Z,23.40
2023-08-20T19:12:23.808Z,18.02
2023-08-20T19:14:53.608Z,17.25
2023-08-20T19:17:23.521Z,24.45
2023-08-20T19:19:53.444Z,20.52
2023-08-20T19:22:26.529Z,20.42
2023-08-20T19:24:56.287Z,20.98
2023-08-20T19:27:25.987Z,18.33
2023-08-20T19:29:55.779Z,23.38
2023-08-20T19:32:25.650Z,24.55
2023-08-20T19:34:55.925Z,23.05
2023-08-20T19:37:30.695Z,19.00
2023-08-20T19:40:02.359Z,17.42
2023-08-20T19:42:32.155Z,20.88
2023-08-20T19:45:02.385Z,17.80
2023-08-20T19:47:32.225Z,17.23
2023-08-20T19:50:01.972Z,14.35
2023-08-20T19:52:34.236Z,13.82
2023-08-20T19:55:04.557Z,22.20
2023-08-20T19:57:34.671Z,21.13
2023-08-20T20:00:06.149Z,20.90
2023-08-20T20:02:36.054Z,17.35
2023-08-20T20:05:09.113Z,19.17
2023-08-20T20:07:42.139Z,20.35
2023-08-20T20:10:13.774Z,17.33
2023-08-20T20:12:45.136Z,14.23
2023-08-20T20:15:15.922Z,14.25
2023-08-20T20:17:45.691Z,18.27
2023-08-20T20:20:17.054Z,16.38
2023-08-20T20:22:49.439Z,14.10
2023-08-20T20:25:19.184Z,13.80
2023-08-20T20:27:50.333Z,14.85
2023-08-20T20:30:20.013Z,14.90
2023-08-20T20:32:50.214Z,17.13
2023-08-20T20:35:21.805Z,14.00
2023-08-20T20:37:54.198Z,13.88
2023-08-20T20:40:23.902Z,13.75
2023-08-20T20:42:53.620Z,15.77
2023-08-20T20:45:23.339Z,12.43
2023-08-20T20:47:53.370Z,14.55
2023-08-20T20:50:23.145Z,15.27
2023-08-20T20:52:55.458Z,16.13
2023-08-20T20:55:25.391Z,15.52
2023-08-20T20:57:55.159Z,16.98
2023-08-20T21:00:25.099Z,14.05
2023-08-20T21:02:54.867Z,13.20
2023-08-20T21:05:24.555Z,14.93
2023-08-20T21:07:56.858Z,14.57
2023-08-20T21:10:26.592Z,14.13
2023-08-20T21:12:56.365Z,14.77
2023-08-20T21:15:26.056Z,16.17
2023-08-20T21:17:56.867Z,17.15
2023-08-20T21:20:26.640Z,14.57
2023-08-20T21:22:58.881Z,15.38
2023-08-20T21:25:29.145Z,17.88
2023-08-20T21:27:58.852Z,14.85
2023-08-20T21:30:28.530Z,14.80
2023-08-20T21:32:58.462Z,14.30
2023-08-20T21:35:28.730Z,15.23
2023-08-20T21:38:01.037Z,15.75
2023-08-20T21:40:31.045Z,14.90
2023-08-20T21:43:00.754Z,14.85
2023-08-20T21:45:30.501Z,16.15
2023-08-20T21:48:00.317Z,16.38
2023-08-20T21:50:30.072Z,16.27
2023-08-20T21:53:02.901Z,17.30
2023-08-20T21:55:33.772Z,14.55
2023-08-20T21:58:03.515Z,14.35
2023-08-20T22:00:33.228Z,16.42
2023-08-20T22:03:03.089Z,18.23
2023-08-20T22:05:32.843Z,17.80
2023-08-20T22:08:06.033Z,16.05
2023-08-20T22:10:35.712Z,17.98
2023-08-20T22:13:05.475Z,18.25
2023-08-20T22:15:35.247Z,16.58
2023-08-20T22:18:05.714Z,17.65
2023-08-20T22:20:36.065Z,13.50
2023-08-20T22:23:08.601Z,14.80
2023-08-20T22:25:38.291Z,16.50
2023-08-20T22:28:08.165Z,16.40
2023-08-20T22:30:39.443Z,19.27
2023-08-20T22:33:09.231Z,15.32
2023-08-20T22:35:39.040Z,19.52
2023-08-20T22:38:13.615Z,17.00
2023-08-20T22:40:43.697Z,17.02
2023-08-20T22:43:13.608Z,15.82
2023-08-20T22:45:43.370Z,22.42
2023-08-20T22:48:13.131Z,16.50
2023-08-20T22:50:42.912Z,16.55
2023-08-20T22:53:15.161Z,16.98
2023-08-20T22:55:44.854Z,18.20
2023-08-20T22:58:14.561Z,17.58
2023-08-20T23:00:44.260Z,20.20
2023-08-20T23:03:13.949Z,22.30
2023-08-20T23:05:43.672Z,17.00
2023-08-20T23:08:15.921Z,16.85
2023-08-20T23:10:45.618Z,19.13
2023-08-20T23:13:15.235Z,17.20
2023-08-20T23:15:45.154Z,15.77
2023-08-20T23:18:14.845Z,18.00
2023-08-20T23:20:44.555Z,21.88
2023-08-20T23:23:16.907Z,17.50
2023-08-20T23:25:47.155Z,17.50
2023-08-20T23:28:16.835Z,18.08
2023-08-20T23:30:47.188Z,20.63
2023-08-20T23:33:17.239Z,19.95
2023-08-20T23:35:47.155Z,16.42
2023-08-20T23:38:19.542Z,17.35
2023-08-20T23:40:49.205Z,18.65
2023-08-20T23:43:18.883Z,16.80
2023-08-20T23:45:48.574Z,20.45
2023-08-20T23:48:19.463Z,18.90
2023-08-20T23:50:49.160Z,16.92
2023-08-20T23:53:23.885Z,17.67
2023-08-20T23:55:53.695Z,16.97
2023-08-20T23:58:23.364Z,18.95
